createdAt,value
2022-09-10T00:01:22.182Z,28.58
2022-09-10T00:03:50.291Z,28.55
2022-09-10T00:06:19.291Z,28.53
2022-09-10T00:08:47.313Z,28.51
2022-09-10T00:11:15.357Z,28.48
2022-09-10T00:13:43.855Z,28.20
2022-09-10T00:16:13.465Z,28.26
2022-09-10T00:18:41.848Z,28.43
2022-09-10T00:21:12.837Z,28.55
2022-09-10T00:23:40.673Z,28.54
2022-09-10T00:26:21.974Z,28.37
2022-09-10T00:28:51.687Z,27.50
2022-09-10T00:31:19.982Z,27.84
2022-09-10T00:33:48.075Z,28.32
2022-09-10T00:36:24.476Z,28.13
2022-09-10T00:38:55.163Z,28.00
2022-09-10T00:41:27.634Z,27.89
2022-09-10T00:44:03.917Z,27.36
2022-09-10T00:46:59.482Z,26.98
2022-09-10T00:49:35.100Z,26.93
2022-09-10T00:52:03.018Z,26.92
2022-09-10T00:54:34.036Z,27.51
2022-09-10T00:57:06.528Z,27.48
2022-09-10T00:59:34.973Z,27.55
2022-09-10T01:02:02.878Z,27.72
2022-09-10T01:04:31.602Z,27.79
2022-09-10T01:07:00.750Z,27.38
2022-09-10T01:09:29.547Z,26.87
2022-09-10T01:12:06.278Z,27.22
2022-09-10T01:14:58.276Z,26.70
2022-09-10T01:17:45.249Z,26.74
2022-09-10T01:20:48.479Z,26.10
2022-09-10T01:23:34.223Z,27.28
2022-09-10T01:26:25.524Z,27.61
2022-09-10T01:29:10.528Z,27.26
2022-09-10T01:31:54.429Z,27.15
2022-09-10T01:34:34.876Z,26.88
2022-09-10T01:37:11.551Z,26.16
2022-09-10T01:39:39.841Z,26.27
2022-09-10T01:42:07.983Z,26.06
2022-09-10T01:44:47.871Z,26.29
2022-09-10T01:47:43.874Z,26.66
2022-09-10T01:50:30.343Z,26.17
2022-09-10T01:53:14.889Z,26.07
2022-09-10T01:56:10.213Z,26.18
2022-09-10T01:58:45.424Z,26.28
2022-09-10T02:01:30.022Z,26.01
2022-09-10T02:04:01.744Z,25.70
2022-09-10T02:06:33.373Z,26.26
2022-09-10T02:09:03.003Z,26.32
2022-09-10T02:11:43.540Z,26.18
2022-09-10T02:14:14.657Z,26.36
2022-09-10T02:17:08.275Z,26.89
2022-09-10T02:19:35.603Z,26.41
2022-09-10T02:22:05.007Z,25.94
2022-09-10T02:24:32.437Z,25.50
2022-09-10T02:27:00.982Z,25.54
2022-09-10T02:29:28.976Z,25.65
2022-09-10T02:31:57.650Z,25.53
2022-09-10T02:34:24.889Z,25.63
2022-09-10T02:36:54.491Z,25.75
2022-09-10T02:39:24.068Z,25.57
2022-09-10T02:41:52.768Z,25.35
2022-09-10T02:44:21.320Z,25.68
2022-09-10T02:46:48.696Z,25.80
2022-09-10T02:49:15.980Z,25.88
2022-09-10T02:51:44.883Z,25.54
2022-09-10T02:54:13.324Z,25.45
2022-09-10T02:56:40.831Z,25.77
2022-09-10T02:59:08.469Z,25.91
2022-09-10T03:01:40.596Z,25.90
2022-09-10T03:04:10.063Z,25.66
2022-09-10T03:06:39.425Z,25.85
2022-09-10T03:09:06.818Z,25.59
2022-09-10T03:11:35.104Z,25.34
2022-09-10T03:14:02.604Z,25.32
2022-09-10T03:16:31.878Z,25.37
2022-09-10T03:19:03.049Z,25.51
2022-09-10T03:21:35.580Z,26.14
2022-09-10T03:24:10.320Z,25.49
2022-09-10T03:26:38.468Z,25.16
2022-09-10T03:29:05.814Z,25.41
2022-09-10T03:31:40.116Z,25.58
2022-09-10T03:34:08.906Z,25.84
2022-09-10T03:36:37.494Z,25.69
2022-09-10T03:39:08.280Z,25.63
2022-09-10T03:41:37.623Z,25.76
2022-09-10T03:44:05.800Z,26.28
2022-09-10T03:46:33.324Z,25.96
2022-09-10T03:49:02.693Z,25.22
2022-09-10T03:51:34.147Z,25.43
2022-09-10T03:54:03.088Z,25.91
2022-09-10T03:56:32.835Z,25.68
2022-09-10T03:59:00.560Z,25.82
2022-09-10T04:01:29.220Z,25.49
2022-09-10T04:03:58.280Z,24.96
2022-09-10T04:06:28.375Z,24.78
2022-09-10T04:08:56.116Z,25.68
2022-09-10T04:11:27.856Z,26.38
2022-09-10T04:13:57.032Z,26.48
2022-09-10T04:16:25.297Z,26.61
2022-09-10T04:18:52.650Z,26.70
2022-09-10T04:21:20.781Z,26.08
2022-09-10T04:23:54.692Z,25.44
2022-09-10T04:26:23.005Z,25.76
2022-09-10T04:28:51.487Z,26.39
2022-09-10T04:31:19.280Z,26.58
2022-09-10T04:33:47.207Z,26.10
2022-09-10T04:36:17.439Z,25.16
2022-09-10T04:38:45.381Z,24.68
2022-09-10T04:41:15.819Z,24.61
2022-09-10T04:43:43.905Z,24.81
2022-09-10T04:46:11.453Z,24.23
2022-09-10T04:48:41.867Z,24.68
2022-09-10T04:51:17.799Z,24.76
2022-09-10T04:53:51.837Z,24.38
2022-09-10T04:56:22.312Z,24.34
2022-09-10T04:58:52.201Z,24.24
2022-09-10T05:01:20.095Z,24.13
2022-09-10T05:03:51.031Z,24.55
2022-09-10T05:06:19.517Z,25.24
2022-09-10T05:08:48.412Z,25.76
2022-09-10T05:11:15.740Z,25.67
2022-09-10T05:13:43.765Z,24.96
2022-09-10T05:16:12.758Z,24.85
2022-09-10T05:18:40.785Z,25.22
2022-09-10T05:21:09.546Z,25.52
2022-09-10T05:23:36.860Z,25.87
2022-09-10T05:26:04.205Z,25.74
2022-09-10T05:28:31.641Z,26.22
2022-09-10T05:30:59.092Z,26.01
2022-09-10T05:33:28.618Z,25.90
2022-09-10T05:35:56.011Z,25.83
2022-09-10T05:38:24.993Z,25.57
2022-09-10T05:40:52.967Z,26.31
2022-09-10T05:43:21.644Z,26.12
2022-09-10T05:45:49.238Z,26.27
2022-09-10T05:48:17.971Z,25.84
2022-09-10T05:50:46.301Z,25.65
2022-09-10T05:53:14.320Z,26.03
2022-09-10T05:55:41.617Z,26.08
2022-09-10T05:58:09.458Z,26.32
2022-09-10T06:00:38.868Z,26.25
2022-09-10T06:03:06.552Z,25.94
2022-09-10T06:05:39.689Z,25.67
2022-09-10T06:08:08.901Z,26.07
2022-09-10T06:10:41.310Z,25.95
2022-09-10T06:13:09.221Z,25.71
2022-09-10T06:15:38.136Z,25.63
2022-09-10T06:18:05.758Z,25.86
2022-09-10T06:20:33.363Z,25.74
2022-09-10T06:23:01.346Z,25.91
2022-09-10T06:25:29.158Z,26.66
2022-09-10T06:27:57.846Z,26.52
2022-09-10T06:30:26.486Z,26.88
2022-09-10T06:32:54.373Z,27.17
2022-09-10T06:35:21.901Z,27.49
2022-09-10T06:37:50.667Z,27.44
2022-09-10T06:40:18.882Z,27.66
2022-09-10T06:42:46.247Z,27.02
2022-09-10T06:45:13.793Z,26.47
2022-09-10T06:48:37.658Z,25.97
2022-09-10T06:51:02.144Z,26.23
2022-09-10T06:53:34.446Z,26.58
2022-09-10T06:56:06.152Z,26.39
2022-09-10T06:58:35.506Z,26.33
2022-09-10T07:01:14.622Z,27.07
2022-09-10T07:03:46.907Z,27.75
2022-09-10T07:06:16.835Z,27.89
2022-09-10T07:08:47.342Z,27.84
2022-09-10T07:11:18.803Z,27.72
2022-09-10T07:13:52.231Z,27.93
2022-09-10T07:16:23.527Z,28.17
2022-09-10T07:18:58.723Z,27.73
2022-09-10T07:21:45.958Z,27.80
2022-09-10T07:24:15.434Z,28.31
2022-09-10T07:27:06.149Z,28.69
2022-09-10T07:29:35.582Z,28.49
2022-09-10T07:32:04.724Z,28.50
2022-09-10T07:34:34.808Z,29.11
2022-09-10T07:37:03.978Z,29.08
2022-09-10T07:39:32.334Z,28.75
2022-09-10T07:42:00.559Z,28.40
2022-09-10T07:44:30.558Z,28.39
2022-09-10T07:47:03.784Z,28.16
2022-09-10T07:49:32.941Z,28.45
2022-09-10T07:52:00.693Z,28.25
2022-09-10T07:54:36.600Z,27.31
2022-09-10T07:57:05.618Z,26.88
2022-09-10T07:59:34.549Z,26.52
2022-09-10T08:02:04.012Z,26.24
2022-09-10T08:04:36.548Z,26.27
2022-09-10T08:07:07.633Z,26.06
2022-09-10T08:09:37.970Z,26.23
2022-09-10T08:12:10.688Z,26.81
2022-09-10T08:14:38.351Z,27.22
2022-09-10T08:17:06.348Z,27.60
2022-09-10T08:19:39.735Z,27.86
2022-09-10T08:22:11.456Z,28.45
2022-09-10T08:24:45.093Z,28.87
2022-09-10T08:27:12.479Z,29.12
2022-09-10T08:29:40.011Z,29.06
2022-09-10T08:32:13.519Z,29.21
2022-09-10T08:34:42.220Z,29.65
2022-09-10T08:37:12.702Z,29.54
2022-09-10T08:39:41.451Z,29.24
2022-09-10T08:42:31.146Z,28.77
2022-09-10T08:45:05.430Z,29.18
2022-09-10T08:47:53.738Z,29.13
2022-09-10T08:51:03.200Z,28.75
2022-09-10T08:53:58.236Z,28.63
2022-09-10T08:56:28.570Z,28.73
2022-09-10T08:59:07.029Z,28.88
2022-09-10T09:01:43.743Z,29.51
2022-09-10T09:04:51.304Z,29.28
2022-09-10T09:07:21.069Z,29.75
2022-09-10T09:09:54.723Z,29.78
2022-09-10T09:12:53.543Z,29.19
2022-09-10T09:15:43.499Z,29.28
2022-09-10T09:18:25.746Z,29.03
2022-09-10T09:21:01.164Z,28.78
2022-09-10T09:24:14.329Z,28.33
2022-09-10T09:26:50.321Z,29.18
2022-09-10T09:29:29.030Z,28.67
2022-09-10T09:32:03.875Z,29.37
2022-09-10T09:34:45.842Z,29.93
2022-09-10T09:37:21.684Z,29.96
2022-09-10T09:40:06.728Z,30.39
2022-09-10T09:42:54.039Z,29.67
2022-09-10T09:45:35.341Z,29.47
2022-09-10T09:48:04.919Z,29.28
2022-09-10T09:50:39.114Z,28.97
2022-09-10T09:53:06.452Z,28.88
2022-09-10T09:55:44.915Z,28.82
2022-09-10T09:58:21.446Z,28.86
2022-09-10T10:01:03.977Z,28.82
2022-09-10T10:03:37.938Z,28.71
2022-09-10T10:06:08.701Z,28.85
2022-09-10T10:08:58.324Z,29.10
2022-09-10T10:11:51.539Z,29.19
2022-09-10T10:14:24.402Z,29.02
2022-09-10T10:16:57.298Z,28.77
2022-09-10T10:19:37.118Z,28.67
2022-09-10T10:22:19.924Z,28.69
2022-09-10T10:24:50.013Z,28.89
2022-09-10T10:27:35.517Z,29.78
2022-09-10T10:30:18.533Z,30.11
2022-09-10T10:32:58.217Z,30.48
2022-09-10T10:35:34.500Z,30.88
2022-09-10T10:38:27.516Z,30.16
2022-09-10T10:41:33.548Z,30.16
2022-09-10T10:44:44.564Z,30.57
2022-09-10T10:47:24.002Z,30.87
2022-09-10T10:50:10.137Z,30.70
2022-09-10T10:53:04.094Z,30.51
2022-09-10T10:55:38.445Z,30.55
2022-09-10T10:58:40.753Z,30.38
2022-09-10T11:01:18.617Z,30.25
2022-09-10T11:04:08.152Z,30.50
2022-09-10T11:06:44.628Z,31.26
2022-09-10T11:09:39.477Z,31.12
2022-09-10T11:12:18.391Z,30.76
2022-09-10T11:14:59.232Z,31.07
2022-09-10T11:17:53.567Z,32.00
2022-09-10T11:20:30.285Z,31.65
2022-09-10T11:23:07.388Z,31.10
2022-09-10T11:26:00.796Z,30.69
2022-09-10T11:28:38.988Z,30.23
2022-09-10T11:31:18.787Z,29.72
2022-09-10T11:34:00.456Z,30.19
2022-09-10T11:36:42.412Z,30.03
2022-09-10T11:39:35.818Z,30.67
2022-09-10T11:42:17.040Z,32.53
2022-09-10T11:44:47.918Z,33.62
2022-09-10T11:47:24.961Z,33.69
2022-09-10T11:50:22.477Z,32.79
2022-09-10T11:52:50.958Z,32.54
2022-09-10T11:55:18.579Z,33.12
2022-09-10T11:58:13.878Z,32.10
2022-09-10T12:01:15.044Z,30.86
2022-09-10T12:04:21.207Z,30.96
2022-09-10T12:07:28.002Z,32.12
2022-09-10T12:10:02.036Z,31.21
2022-09-10T12:12:51.488Z,31.41
2022-09-10T12:15:26.211Z,31.74
2022-09-10T12:18:05.379Z,30.69
2022-09-10T12:20:42.546Z,29.06
2022-09-10T12:23:19.399Z,28.62
2022-09-10T12:26:01.167Z,28.57
2022-09-10T12:28:46.092Z,28.76
2022-09-10T12:31:21.249Z,28.47
2022-09-10T12:33:55.010Z,28.32
2022-09-10T12:36:37.749Z,28.12
2022-09-10T12:39:26.232Z,27.99
2022-09-10T12:41:54.135Z,28.23
2022-09-10T12:44:37.051Z,29.00
2022-09-10T12:47:17.125Z,29.66
2022-09-10T12:49:56.050Z,29.83
2022-09-10T12:52:37.329Z,30.54
2022-09-10T12:55:13.629Z,29.67
2022-09-10T12:58:07.383Z,30.14
2022-09-10T13:00:54.889Z,30.18
2022-09-10T13:03:25.975Z,30.64
2022-09-10T13:05:56.912Z,30.62
2022-09-10T13:08:37.678Z,30.62
2022-09-10T13:11:20.329Z,30.99
2022-09-10T13:14:00.877Z,29.94
2022-09-10T13:16:28.754Z,29.82
2022-09-10T13:19:18.220Z,29.36
2022-09-10T13:21:52.634Z,29.84
2022-09-10T13:24:36.286Z,29.65
2022-09-10T13:27:26.693Z,29.46
2022-09-10T13:30:20.779Z,29.74
2022-09-10T13:32:52.509Z,29.18
2022-09-10T13:35:26.595Z,28.62
2022-09-10T13:38:03.704Z,28.63
2022-09-10T13:40:35.204Z,28.99
2022-09-10T13:43:23.445Z,29.55
2022-09-10T13:45:57.489Z,29.92
2022-09-10T13:48:30.983Z,29.60
2022-09-10T13:51:06.869Z,29.60
2022-09-10T13:53:36.305Z,30.27
2022-09-10T13:56:14.470Z,30.16
2022-09-10T13:58:50.075Z,29.61
2022-09-10T14:01:18.690Z,30.11
2022-09-10T14:03:49.943Z,29.58
2022-09-10T14:06:25.488Z,29.65
2022-09-10T14:08:58.064Z,29.70
2022-09-10T14:11:33.757Z,29.85
2022-09-10T14:14:17.008Z,29.37
2022-09-10T14:16:47.370Z,29.93
2022-09-10T14:19:20.351Z,30.28
2022-09-10T14:21:50.658Z,29.51
2022-09-10T14:24:30.874Z,29.32
2022-09-10T14:27:18.864Z,29.18
2022-09-10T14:29:47.419Z,29.25
2022-09-10T14:32:36.884Z,29.01
2022-09-10T14:35:36.305Z,29.16
2022-09-10T14:38:09.469Z,29.18
2022-09-10T14:40:38.265Z,28.76
2022-09-10T14:43:16.730Z,28.74
2022-09-10T14:45:48.070Z,28.61
2022-09-10T14:49:02.105Z,28.78
2022-09-10T14:51:29.424Z,28.35
2022-09-10T14:53:59.020Z,28.52
2022-09-10T14:56:33.745Z,28.72
2022-09-10T14:59:15.035Z,28.82
2022-09-10T15:01:44.948Z,28.50
2022-09-10T15:04:18.487Z,28.61
2022-09-10T15:06:45.955Z,28.70
2022-09-10T15:09:15.207Z,28.91
2022-09-10T15:11:54.997Z,28.90
2022-09-10T15:14:23.467Z,29.10
2022-09-10T15:16:52.464Z,29.29
2022-09-10T15:19:20.308Z,29.40
2022-09-10T15:21:48.331Z,29.00
2022-09-10T15:24:20.115Z,28.62
2022-09-10T15:26:48.674Z,28.49
2022-09-10T15:29:18.391Z,28.39
2022-09-10T15:31:47.330Z,28.43
2022-09-10T15:34:15.827Z,28.38
2022-09-10T15:36:44.527Z,27.93
2022-09-10T15:39:13.471Z,27.65
2022-09-10T15:41:44.179Z,27.57
2022-09-10T15:44:18.696Z,27.98
2022-09-10T15:46:47.452Z,28.39
2022-09-10T15:49:15.806Z,28.58
2022-09-10T15:51:44.292Z,28.57
2022-09-10T15:54:18.160Z,28.08
2022-09-10T15:56:48.449Z,27.86
2022-09-10T15:59:16.955Z,27.80
2022-09-10T16:01:45.186Z,27.57
2022-09-10T16:04:16.293Z,27.68
2022-09-10T16:06:48.717Z,27.78
2022-09-10T16:09:21.106Z,28.04
2022-09-10T16:11:48.905Z,27.63
2022-09-10T16:14:18.737Z,27.39
2022-09-10T16:16:49.955Z,27.82
2022-09-10T16:19:17.873Z,27.43
2022-09-10T16:21:48.695Z,27.55
2022-09-10T16:24:16.178Z,28.69
2022-09-10T16:26:48.236Z,28.72
2022-09-10T16:29:19.839Z,27.95
2022-09-10T16:31:47.546Z,27.41
2022-09-10T16:34:20.012Z,27.46
2022-09-10T16:36:51.762Z,27.31
2022-09-10T16:39:20.359Z,27.18
2022-09-10T16:41:49.419Z,27.37
2022-09-10T16:44:18.412Z,26.92
2022-09-10T16:46:47.285Z,26.75
2022-09-10T16:49:18.505Z,26.67
2022-09-10T16:51:47.955Z,26.50
2022-09-10T16:54:19.637Z,26.67
2022-09-10T16:56:48.528Z,26.67
2022-09-10T16:59:19.809Z,26.53
2022-09-10T17:01:48.672Z,26.73
2022-09-10T17:04:22.346Z,26.71
2022-09-10T17:06:51.447Z,27.19
2022-09-10T17:09:18.824Z,27.16
2022-09-10T17:11:46.326Z,27.13
2022-09-10T17:14:13.645Z,27.27
2022-09-10T17:16:42.476Z,27.63
2022-09-10T17:19:15.460Z,28.02
2022-09-10T17:21:51.470Z,28.27
2022-09-10T17:24:21.220Z,27.95
2022-09-10T17:26:49.974Z,28.56
2022-09-10T17:29:23.039Z,28.33
2022-09-10T17:31:52.374Z,27.27
2022-09-10T17:34:24.725Z,26.49
2022-09-10T17:36:52.516Z,26.10
2022-09-10T17:39:20.090Z,25.67
2022-09-10T17:41:48.100Z,25.51
2022-09-10T17:44:16.743Z,25.41
2022-09-10T17:46:45.282Z,25.39
2022-09-10T17:49:16.040Z,25.30
2022-09-10T17:51:44.104Z,25.27
2022-09-10T17:54:13.376Z,25.21
2022-09-10T17:56:42.025Z,25.00
2022-09-10T17:59:13.169Z,24.87
2022-09-10T18:01:41.822Z,24.93
2022-09-10T18:04:14.867Z,24.91
2022-09-10T18:06:42.295Z,24.82
2022-09-10T18:09:11.504Z,24.69
2022-09-10T18:11:40.704Z,24.48
2022-09-10T18:14:08.660Z,24.35
2022-09-10T18:16:36.705Z,24.31
2022-09-10T18:19:13.926Z,24.32
2022-09-10T18:21:45.715Z,24.17
2022-09-10T18:24:21.202Z,24.12
2022-09-10T18:26:50.135Z,24.05
2022-09-10T18:29:30.247Z,23.97
2022-09-10T18:32:00.880Z,24.01
2022-09-10T18:34:30.386Z,24.00
2022-09-10T18:37:00.774Z,23.90
2022-09-10T18:39:31.349Z,23.74
2022-09-10T18:42:00.858Z,23.71
2022-09-10T18:44:33.447Z,23.72
2022-09-10T18:47:01.047Z,23.78
2022-09-10T18:49:28.478Z,23.71
2022-09-10T18:51:57.039Z,23.54
2022-09-10T18:54:28.974Z,23.72
2022-09-10T18:56:57.534Z,23.71
2022-09-10T18:59:25.863Z,23.63
2022-09-10T19:01:56.183Z,23.57
2022-09-10T19:04:26.986Z,23.53
2022-09-10T19:06:55.446Z,23.48
2022-09-10T19:09:31.215Z,23.42
2022-09-10T19:12:00.669Z,23.41
2022-09-10T19:14:31.191Z,23.43
2022-09-10T19:17:00.689Z,23.40
2022-09-10T19:19:34.121Z,23.41
2022-09-10T19:22:04.021Z,23.46
2022-09-10T19:27:19.361Z,23.41
2022-09-10T19:29:47.665Z,23.43
2022-09-10T19:32:15.374Z,23.38
2022-09-10T19:34:44.481Z,23.38
2022-09-10T19:37:13.124Z,23.32
2022-09-10T19:39:40.595Z,23.31
2022-09-10T19:42:08.273Z,23.36
2022-09-10T19:44:35.659Z,23.35
2022-09-10T19:47:04.251Z,23.10
2022-09-10T19:49:32.077Z,23.36
2022-09-10T19:52:00.406Z,23.33
2022-09-10T19:54:28.900Z,23.09
2022-09-10T19:56:56.621Z,23.56
2022-09-10T19:59:24.002Z,23.61
2022-09-10T20:01:51.435Z,23.60
2022-09-10T20:04:19.227Z,23.67
2022-09-10T20:06:47.832Z,23.71
2022-09-10T20:09:15.177Z,23.69
2022-09-10T20:11:42.562Z,23.63
2022-09-10T20:14:14.434Z,23.64
2022-09-10T20:16:44.175Z,23.59
2022-09-10T20:19:14.708Z,23.76
2022-09-10T20:21:42.561Z,23.71
2022-09-10T20:24:11.415Z,23.69
2022-09-10T20:26:44.006Z,23.74
2022-09-10T20:29:14.115Z,23.77
2022-09-10T20:31:43.462Z,23.58
2022-09-10T20:34:17.048Z,23.56
2022-09-10T20:36:44.502Z,23.72
2022-09-10T20:39:17.223Z,23.72
2022-09-10T20:41:45.121Z,23.64
2022-09-10T20:44:16.148Z,23.68
2022-09-10T20:46:44.243Z,23.66
2022-09-10T20:49:14.184Z,23.67
2022-09-10T20:51:45.018Z,23.53
2022-09-10T20:54:15.091Z,23.54
2022-09-10T20:56:44.429Z,23.57
2022-09-10T20:59:14.834Z,23.55
2022-09-10T21:01:44.406Z,23.55
2022-09-10T21:04:13.172Z,23.54
2022-09-10T21:06:41.006Z,23.49
2022-09-10T21:09:08.758Z,23.44
2022-09-10T21:11:36.432Z,23.46
2022-09-10T21:14:05.807Z,23.48
2022-09-10T21:16:35.713Z,23.44
2022-09-10T21:19:08.163Z,23.54
2022-09-10T21:21:36.669Z,23.54
2022-09-10T21:24:09.135Z,23.40
2022-09-10T21:26:39.566Z,23.37
2022-09-10T21:29:11.038Z,23.34
2022-09-10T21:31:39.014Z,23.31
2022-09-10T21:34:06.616Z,23.37
2022-09-10T21:36:36.041Z,23.32
2022-09-10T21:39:06.925Z,23.34
2022-09-10T21:41:37.122Z,23.29
2022-09-10T21:44:08.260Z,23.41
2022-09-10T21:46:36.945Z,23.41
2022-09-10T21:49:05.224Z,23.23
2022-09-10T21:51:32.884Z,22.98
2022-09-10T21:54:00.402Z,23.07
2022-09-10T21:56:29.912Z,22.83
2022-09-10T21:58:59.908Z,22.71
2022-09-10T22:01:33.024Z,22.80
2022-09-10T22:04:01.191Z,22.84
2022-09-10T22:06:30.981Z,22.84
2022-09-10T22:09:01.456Z,23.00
2022-09-10T22:11:37.915Z,23.00
2022-09-10T22:14:08.617Z,22.74
2022-09-10T22:16:36.296Z,22.91
2022-09-10T22:19:07.332Z,22.89
2022-09-10T22:21:38.581Z,22.84
2022-09-10T22:24:06.623Z,22.91
2022-09-10T22:26:34.917Z,22.71
2022-09-10T22:29:03.526Z,22.43
2022-09-10T22:31:33.334Z,22.23
2022-09-10T22:34:07.186Z,22.12
2022-09-10T22:36:39.860Z,21.91
2022-09-10T22:39:13.107Z,21.74
2022-09-10T22:41:41.575Z,21.60
2022-09-10T22:44:09.734Z,21.62
2022-09-10T22:46:38.288Z,21.64
2022-09-10T22:49:06.591Z,21.49
2022-09-10T22:51:37.093Z,20.89
2022-09-10T22:54:06.422Z,20.98
2022-09-10T22:56:36.044Z,20.71
2022-09-10T22:59:05.578Z,20.63
2022-09-10T23:01:37.862Z,20.43
2022-09-10T23:04:06.452Z,20.63
2022-09-10T23:06:36.847Z,20.83
2022-09-10T23:09:11.857Z,20.88
2022-09-10T23:11:41.783Z,20.79
2022-09-10T23:14:13.347Z,20.67
2022-09-10T23:16:43.587Z,20.76
2022-09-10T23:19:17.137Z,20.73
2022-09-10T23:21:46.956Z,20.89
2022-09-10T23:24:16.553Z,21.10
2022-09-10T23:26:44.275Z,21.14
2022-09-10T23:29:13.448Z,21.18
2022-09-10T23:31:42.227Z,21.37
2022-09-10T23:34:18.679Z,21.41
2022-09-10T23:36:48.606Z,21.31
2022-09-10T23:39:20.027Z,21.86
2022-09-10T23:41:52.303Z,21.94
2022-09-10T23:44:20.629Z,21.75
2022-09-10T23:46:48.664Z,21.89
2022-09-10T23:49:16.300Z,21.79
2022-09-10T23:51:49.127Z,21.64
2022-09-10T23:54:18.107Z,21.74
2022-09-10T23:56:45.746Z,21.63
2022-09-10T23:59:13.138Z,21.61
